sensor_id;sensor_type;location;lat;lon;timestamp;pressure;altitude;pressure_sealevel;temperature;humidity
42771;BME280;28426;42.872;25.314;2023-12-14T00:00:37;95896.63;;;6.57;72.82
42771;BME280;28426;42.872;25.314;2023-12-14T00:03:07;95892.97;;;6.58;72.92
42771;BME280;28426;42.872;25.314;2023-12-14T00:05:38;95881.50;;;6.51;72.50
42771;BME280;28426;42.872;25.314;2023-12-14T00:08:09;95892.59;;;6.61;72.79
42771;BME280;28426;42.872;25.314;2023-12-14T00:10:39;95902.19;;;6.62;72.61
42771;BME280;28426;42.872;25.314;2023-12-14T00:13:13;95896.28;;;6.60;72.56
42771;BME280;28426;42.872;25.314;2023-12-14T00:15:43;95887.66;;;6.58;72.62
42771;BME280;28426;42.872;25.314;2023-12-14T00:18:16;95899.47;;;6.56;72.78
42771;BME280;28426;42.872;25.314;2023-12-14T00:20:47;95903.97;;;6.55;72.78
42771;BME280;28426;42.872;25.314;2023-12-14T00:23:18;95904.16;;;6.53;73.06
42771;BME280;28426;42.872;25.314;2023-12-14T00:25:49;95905.19;;;6.52;73.13
42771;BME280;28426;42.872;25.314;2023-12-14T00:28:22;95905.34;;;6.51;73.04
42771;BME280;28426;42.872;25.314;2023-12-14T00:30:58;95913.50;;;6.49;73.31
42771;BME280;28426;42.872;25.314;2023-12-14T00:33:29;95913.69;;;6.48;73.19
42771;BME280;28426;42.872;25.314;2023-12-14T00:36:00;95916.06;;;6.43;73.51
42771;BME280;28426;42.872;25.314;2023-12-14T00:38:30;95917.66;;;6.37;73.60
42771;BME280;28426;42.872;25.314;2023-12-14T00:41:01;95907.88;;;6.37;73.79
42771;BME280;28426;42.872;25.314;2023-12-14T00:43:34;95919.09;;;6.39;73.67
42771;BME280;28426;42.872;25.314;2023-12-14T00:46:06;95917.47;;;6.38;73.70
42771;BME280;28426;42.872;25.314;2023-12-14T00:48:37;95902.56;;;6.37;74.13
42771;BME280;28426;42.872;25.314;2023-12-14T00:51:08;95906.16;;;6.30;74.44
42771;BME280;28426;42.872;25.314;2023-12-14T00:53:39;95902.81;;;6.21;74.37
42771;BME280;28426;42.872;25.314;2023-12-14T00:56:09;95902.91;;;6.12;75.05
42771;BME280;28426;42.872;25.314;2023-12-14T00:58:43;95902.22;;;6.04;75.39
42771;BME280;28426;42.872;25.314;2023-12-14T01:01:14;95909.03;;;5.98;75.45
42771;BME280;28426;42.872;25.314;2023-12-14T01:03:45;95909.03;;;5.98;76.01
42771;BME280;28426;42.872;25.314;2023-12-14T01:06:15;95901.72;;;6.00;76.12
42771;BME280;28426;42.872;25.314;2023-12-14T01:08:46;95905.84;;;6.02;76.13
42771;BME280;28426;42.872;25.314;2023-12-14T01:11:17;95901.44;;;5.95;75.82
42771;BME280;28426;42.872;25.314;2023-12-14T01:13:50;95908.63;;;5.79;75.59
42771;BME280;28426;42.872;25.314;2023-12-14T01:16:21;95911.25;;;5.64;76.63
42771;BME280;28426;42.872;25.314;2023-12-14T01:18:51;95907.78;;;5.63;77.75
42771;BME280;28426;42.872;25.314;2023-12-14T01:21:22;95894.09;;;5.75;77.45
42771;BME280;28426;42.872;25.314;2023-12-14T01:23:53;95902.22;;;5.88;77.06
42771;BME280;28426;42.872;25.314;2023-12-14T01:26:23;95895.63;;;5.99;76.66
42771;BME280;28426;42.872;25.314;2023-12-14T01:28:57;95896.59;;;6.13;75.69
42771;BME280;28426;42.872;25.314;2023-12-14T01:31:28;95868.63;;;6.26;75.07
42771;BME280;28426;42.872;25.314;2023-12-14T01:33:58;95867.22;;;6.30;74.67
42771;BME280;28426;42.872;25.314;2023-12-14T01:36:29;95871.41;;;6.39;74.20
42771;BME280;28426;42.872;25.314;2023-12-14T01:39:00;95872.28;;;6.47;74.69
42771;BME280;28426;42.872;25.314;2023-12-14T01:41:31;95875.50;;;6.64;74.28
42771;BME280;28426;42.872;25.314;2023-12-14T01:44:04;95884.22;;;6.79;73.93
42771;BME280;28426;42.872;25.314;2023-12-14T01:46:35;95886.75;;;6.94;73.64
42771;BME280;28426;42.872;25.314;2023-12-14T01:49:06;95882.38;;;7.09;72.97
42771;BME280;28426;42.872;25.314;2023-12-14T01:51:37;95878.00;;;7.23;72.68
42771;BME280;28426;42.872;25.314;2023-12-14T01:54:07;95884.00;;;7.38;72.07
42771;BME280;28426;42.872;25.314;2023-12-14T01:56:38;95876.94;;;7.52;72.14
42771;BME280;28426;42.872;25.314;2023-12-14T01:59:11;95877.38;;;7.63;70.29
42771;BME280;28426;42.872;25.314;2023-12-14T02:01:44;95879.50;;;7.74;69.80
42771;BME280;28426;42.872;25.314;2023-12-14T02:04:15;95887.09;;;7.84;69.33
42771;BME280;28426;42.872;25.314;2023-12-14T02:06:45;95878.94;;;7.92;69.87
42771;BME280;28426;42.872;25.314;2023-12-14T02:09:16;95868.34;;;7.99;68.71
42771;BME280;28426;42.872;25.314;2023-12-14T02:11:47;95867.53;;;8.05;69.00
42771;BME280;28426;42.872;25.314;2023-12-14T02:14:22;95862.66;;;8.09;68.86
42771;BME280;28426;42.872;25.314;2023-12-14T02:16:53;95869.81;;;8.15;68.31
42771;BME280;28426;42.872;25.314;2023-12-14T02:19:24;95861.25;;;8.20;68.29
42771;BME280;28426;42.872;25.314;2023-12-14T02:22:02;95861.66;;;8.23;68.07
42771;BME280;28426;42.872;25.314;2023-12-14T02:24:36;95856.97;;;8.25;67.92
42771;BME280;28426;42.872;25.314;2023-12-14T02:27:06;95864.94;;;8.25;67.67
42771;BME280;28426;42.872;25.314;2023-12-14T02:29:37;95863.31;;;8.24;67.05
42771;BME280;28426;42.872;25.314;2023-12-14T02:32:08;95860.03;;;8.22;66.85
42771;BME280;28426;42.872;25.314;2023-12-14T02:34:38;95858.81;;;8.18;67.00
42771;BME280;28426;42.872;25.314;2023-12-14T02:37:09;95857.38;;;8.16;67.29
42771;BME280;28426;42.872;25.314;2023-12-14T02:39:43;95856.94;;;8.12;67.29
42771;BME280;28426;42.872;25.314;2023-12-14T02:42:14;95855.09;;;8.06;67.27
42771;BME280;28426;42.872;25.314;2023-12-14T02:44:46;95855.91;;;8.00;67.49
42771;BME280;28426;42.872;25.314;2023-12-14T02:47:17;95850.38;;;7.94;67.18
42771;BME280;28426;42.872;25.314;2023-12-14T02:49:47;95840.31;;;7.90;67.67
42771;BME280;28426;42.872;25.314;2023-12-14T02:52:18;95836.22;;;7.87;67.69
42771;BME280;28426;42.872;25.314;2023-12-14T02:54:52;95840.94;;;7.85;67.81
42771;BME280;28426;42.872;25.314;2023-12-14T02:57:22;95831.31;;;7.84;67.97
42771;BME280;28426;42.872;25.314;2023-12-14T02:59:53;95838.47;;;7.83;68.04
42771;BME280;28426;42.872;25.314;2023-12-14T03:02:24;95843.97;;;7.82;68.11
42771;BME280;28426;42.872;25.314;2023-12-14T03:04:55;95846.63;;;7.82;67.93
42771;BME280;28426;42.872;25.314;2023-12-14T03:07:25;95846.63;;;7.82;68.04
42771;BME280;28426;42.872;25.314;2023-12-14T03:09:59;95839.69;;;7.81;67.99
42771;BME280;28426;42.872;25.314;2023-12-14T03:12:30;95831.28;;;7.77;68.10
42771;BME280;28426;42.872;25.314;2023-12-14T03:15:01;95832.50;;;7.75;68.27
42771;BME280;28426;42.872;25.314;2023-12-14T03:17:32;95844.34;;;7.72;68.31
42771;BME280;28426;42.872;25.314;2023-12-14T03:20:03;95839.88;;;7.72;67.90
42771;BME280;28426;42.872;25.314;2023-12-14T03:22:34;95836.19;;;7.74;68.07
42771;BME280;28426;42.872;25.314;2023-12-14T03:25:09;95830.88;;;7.74;68.08
42771;BME280;28426;42.872;25.314;2023-12-14T03:27:40;95839.06;;;7.79;67.91
42771;BME280;28426;42.872;25.314;2023-12-14T03:30:11;95845.63;;;7.83;68.08
42771;BME280;28426;42.872;25.314;2023-12-14T03:32:41;95842.38;;;7.88;67.55
42771;BME280;28426;42.872;25.314;2023-12-14T03:35:12;95851.59;;;7.92;67.62
42771;BME280;28426;42.872;25.314;2023-12-14T03:37:43;95841.19;;;7.97;67.74
42771;BME280;28426;42.872;25.314;2023-12-14T03:40:17;95830.97;;;8.01;66.45
42771;BME280;28426;42.872;25.314;2023-12-14T03:42:47;95839.97;;;8.06;67.25
42771;BME280;28426;42.872;25.314;2023-12-14T03:45:18;95834.69;;;8.13;67.10
42771;BME280;28426;42.872;25.314;2023-12-14T03:47:49;95839.19;;;8.19;66.94
42771;BME280;28426;42.872;25.314;2023-12-14T03:50:20;95832.44;;;8.23;66.82
42771;BME280;28426;42.872;25.314;2023-12-14T03:52:50;95833.28;;;8.31;66.66
42771;BME280;28426;42.872;25.314;2023-12-14T03:55:24;95824.09;;;8.40;65.86
42771;BME280;28426;42.872;25.314;2023-12-14T03:57:54;95819.19;;;8.50;65.99
42771;BME280;28426;42.872;25.314;2023-12-14T04:00:25;95824.34;;;8.59;65.59
42771;BME280;28426;42.872;25.314;2023-12-14T04:02:56;95811.84;;;8.66;65.11
42771;BME280;28426;42.872;25.314;2023-12-14T04:05:27;95817.59;;;8.76;65.13
42771;BME280;28426;42.872;25.314;2023-12-14T04:07:58;95828.03;;;8.85;65.07
42771;BME280;28426;42.872;25.314;2023-12-14T04:10:31;95823.69;;;8.90;64.65
42771;BME280;28426;42.872;25.314;2023-12-14T04:13:02;95814.72;;;8.98;64.60
42771;BME280;28426;42.872;25.314;2023-12-14T04:15:32;95819.38;;;9.03;64.14
42771;BME280;28426;42.872;25.314;2023-12-14T04:18:03;95822.03;;;9.10;64.17
42771;BME280;28426;42.872;25.314;2023-12-14T04:20:34;95823.06;;;9.15;64.09
42771;BME280;28426;42.872;25.314;2023-12-14T04:23:05;95815.06;;;9.22;63.35
42771;BME280;28426;42.872;25.314;2023-12-14T04:25:38;95821.78;;;9.32;63.80
42771;BME280;28426;42.872;25.314;2023-12-14T04:28:09;95817.50;;;9.37;62.97
42771;BME280;28426;42.872;25.314;2023-12-14T04:30:40;95816.44;;;9.45;62.97
42771;BME280;28426;42.872;25.314;2023-12-14T04:33:11;95818.88;;;9.53;61.81
42771;BME280;28426;42.872;25.314;2023-12-14T04:35:42;95810.44;;;9.63;61.40
42771;BME280;28426;42.872;25.314;2023-12-14T04:38:12;95807.31;;;9.73;60.89
42771;BME280;28426;42.872;25.314;2023-12-14T04:40:46;95805.81;;;9.84;61.28
42771;BME280;28426;42.872;25.314;2023-12-14T04:43:17;95807.41;;;9.92;60.47
42771;BME280;28426;42.872;25.314;2023-12-14T04:45:47;95808.81;;;10.01;59.29
42771;BME280;28426;42.872;25.314;2023-12-14T04:48:18;95802.22;;;10.11;58.11
42771;BME280;28426;42.872;25.314;2023-12-14T04:50:49;95806.66;;;10.24;58.02
42771;BME280;28426;42.872;25.314;2023-12-14T04:53:20;95805.94;;;10.35;56.67
42771;BME280;28426;42.872;25.314;2023-12-14T04:55:53;95803.44;;;10.47;57.88
42771;BME280;28426;42.872;25.314;2023-12-14T04:58:24;95806.44;;;10.57;57.86
42771;BME280;28426;42.872;25.314;2023-12-14T05:00:55;95806.16;;;10.66;56.91
42771;BME280;28426;42.872;25.314;2023-12-14T05:03:25;95812.03;;;10.75;57.29
42771;BME280;28426;42.872;25.314;2023-12-14T05:05:56;95808.72;;;10.79;57.12
42771;BME280;28426;42.872;25.314;2023-12-14T05:08:27;95796.59;;;10.83;56.57
42771;BME280;28426;42.872;25.314;2023-12-14T05:11:00;95798.59;;;10.88;56.90
42771;BME280;28426;42.872;25.314;2023-12-14T05:13:31;95802.66;;;10.91;56.86
42771;BME280;28426;42.872;25.314;2023-12-14T05:16:03;95801.63;;;10.92;54.49
42771;BME280;28426;42.872;25.314;2023-12-14T05:18:34;95809.19;;;10.95;55.75
42771;BME280;28426;42.872;25.314;2023-12-14T05:21:05;95807.94;;;10.97;55.31
42771;BME280;28426;42.872;25.314;2023-12-14T05:23:35;95803.00;;;11.01;54.30
42771;BME280;28426;42.872;25.314;2023-12-14T05:26:09;95799.66;;;11.06;55.41
42771;BME280;28426;42.872;25.314;2023-12-14T05:28:39;95808.03;;;11.09;55.44
42771;BME280;28426;42.872;25.314;2023-12-14T05:31:12;95814.78;;;11.12;54.32
42771;BME280;28426;42.872;25.314;2023-12-14T05:33:43;95814.13;;;11.17;54.75
42771;BME280;28426;42.872;25.314;2023-12-14T05:36:14;95805.47;;;11.21;53.52
42771;BME280;28426;42.872;25.314;2023-12-14T05:38:45;95811.75;;;11.27;54.74
42771;BME280;28426;42.872;25.314;2023-12-14T05:41:18;95817.50;;;11.31;53.83
42771;BME280;28426;42.872;25.314;2023-12-14T05:43:48;95813.34;;;11.35;53.41
42771;BME280;28426;42.872;25.314;2023-12-14T05:46:22;95811.03;;;11.38;53.61
42771;BME280;28426;42.872;25.314;2023-12-14T05:48:53;95819.41;;;11.42;54.05
42771;BME280;28426;42.872;25.314;2023-12-14T05:51:27;95830.72;;;11.44;53.50
42771;BME280;28426;42.872;25.314;2023-12-14T05:53:58;95831.28;;;11.46;52.88
42771;BME280;28426;42.872;25.314;2023-12-14T05:56:32;95826.31;;;11.50;53.99
42771;BME280;28426;42.872;25.314;2023-12-14T05:59:06;95820.53;;;11.53;53.70
42771;BME280;28426;42.872;25.314;2023-12-14T06:01:37;95821.72;;;11.57;53.57
42771;BME280;28426;42.872;25.314;2023-12-14T06:04:08;95831.34;;;11.58;52.95
42771;BME280;28426;42.872;25.314;2023-12-14T06:06:39;95831.97;;;11.60;52.65
42771;BME280;28426;42.872;25.314;2023-12-14T06:09:10;95830.69;;;11.63;51.92
42771;BME280;28426;42.872;25.314;2023-12-14T06:11:43;95839.06;;;11.67;52.25
42771;BME280;28426;42.872;25.314;2023-12-14T06:14:14;95829.00;;;11.69;52.93
42771;BME280;28426;42.872;25.314;2023-12-14T06:16:45;95839.44;;;11.70;53.29
42771;BME280;28426;42.872;25.314;2023-12-14T06:19:15;95838.44;;;11.71;52.56
42771;BME280;28426;42.872;25.314;2023-12-14T06:21:47;95830.84;;;11.68;53.02
42771;BME280;28426;42.872;25.314;2023-12-14T06:24:17;95842.94;;;11.71;53.42
42771;BME280;28426;42.872;25.314;2023-12-14T06:26:52;95836.84;;;11.63;53.59
42771;BME280;28426;42.872;25.314;2023-12-14T06:29:23;95840.94;;;11.66;53.53
42771;BME280;28426;42.872;25.314;2023-12-14T06:31:54;95848.34;;;11.64;53.53
42771;BME280;28426;42.872;25.314;2023-12-14T06:34:25;95844.28;;;11.61;52.65
42771;BME280;28426;42.872;25.314;2023-12-14T06:36:55;95849.63;;;11.61;53.60
42771;BME280;28426;42.872;25.314;2023-12-14T06:39:27;95857.03;;;11.59;54.00
42771;BME280;28426;42.872;25.314;2023-12-14T06:42:01;95863.63;;;11.57;53.86
42771;BME280;28426;42.872;25.314;2023-12-14T06:44:31;95864.91;;;11.54;54.49
42771;BME280;28426;42.872;25.314;2023-12-14T06:47:04;95860.03;;;11.51;54.56
42771;BME280;28426;42.872;25.314;2023-12-14T06:49:35;95855.13;;;11.48;54.26
42771;BME280;28426;42.872;25.314;2023-12-14T06:52:06;95866.22;;;11.45;54.60
42771;BME280;28426;42.872;25.314;2023-12-14T06:54:37;95864.81;;;11.42;53.39
42771;BME280;28426;42.872;25.314;2023-12-14T06:57:10;95867.28;;;11.44;53.94
42771;BME280;28426;42.872;25.314;2023-12-14T06:59:41;95857.16;;;11.46;52.79
42771;BME280;28426;42.872;25.314;2023-12-14T07:02:12;95872.34;;;11.52;53.73
42771;BME280;28426;42.872;25.314;2023-12-14T07:04:45;95867.72;;;11.59;53.01
42771;BME280;28426;42.872;25.314;2023-12-14T07:07:16;95863.41;;;11.58;51.45
42771;BME280;28426;42.872;25.314;2023-12-14T07:09:47;95863.53;;;11.26;52.41
42771;BME280;28426;42.872;25.314;2023-12-14T07:12:21;95867.13;;;10.94;54.93
42771;BME280;28426;42.872;25.314;2023-12-14T07:14:52;95872.47;;;10.94;54.01
42771;BME280;28426;42.872;25.314;2023-12-14T07:17:23;95874.41;;;11.06;54.18
42771;BME280;28426;42.872;25.314;2023-12-14T07:19:54;95870.97;;;11.24;53.07
42771;BME280;28426;42.872;25.314;2023-12-14T07:22:29;95878.09;;;11.30;52.10
42771;BME280;28426;42.872;25.314;2023-12-14T07:25:01;95880.63;;;11.44;52.51
42771;BME280;28426;42.872;25.314;2023-12-14T07:27:34;95882.13;;;11.58;51.46
42771;BME280;28426;42.872;25.314;2023-12-14T07:30:06;95894.75;;;11.70;52.17
42771;BME280;28426;42.872;25.314;2023-12-14T07:32:37;95888.22;;;11.84;50.24
42771;BME280;28426;42.872;25.314;2023-12-14T07:35:08;95879.00;;;11.61;49.80
42771;BME280;28426;42.872;25.314;2023-12-14T07:37:39;95899.41;;;11.11;51.85
42771;BME280;28426;42.872;25.314;2023-12-14T07:40:11;95904.09;;;10.58;53.21
42771;BME280;28426;42.872;25.314;2023-12-14T07:42:44;95906.50;;;10.28;53.82
42771;BME280;28426;42.872;25.314;2023-12-14T07:45:16;95895.88;;;10.21;54.31
42771;BME280;28426;42.872;25.314;2023-12-14T07:47:47;95906.28;;;10.29;54.35
42771;BME280;28426;42.872;25.314;2023-12-14T07:50:18;95896.16;;;10.45;54.03
42771;BME280;28426;42.872;25.314;2023-12-14T07:52:51;95900.00;;;10.56;53.82
42771;BME280;28426;42.872;25.314;2023-12-14T07:55:22;95902.22;;;10.66;53.48
42771;BME280;28426;42.872;25.314;2023-12-14T07:57:56;95890.66;;;10.72;53.38
42771;BME280;28426;42.872;25.314;2023-12-14T08:00:26;95896.16;;;10.77;52.90
42771;BME280;28426;42.872;25.314;2023-12-14T08:02:57;95899.63;;;10.84;52.84
42771;BME280;28426;42.872;25.314;2023-12-14T08:05:28;95898.91;;;10.96;52.76
42771;BME280;28426;42.872;25.314;2023-12-14T08:07:59;95908.63;;;11.16;51.87
42771;BME280;28426;42.872;25.314;2023-12-14T08:10:30;95900.38;;;11.43;52.09
42771;BME280;28426;42.872;25.314;2023-12-14T08:13:03;95898.22;;;11.51;53.21
42771;BME280;28426;42.872;25.314;2023-12-14T08:15:34;95916.56;;;11.22;54.21
42771;BME280;28426;42.872;25.314;2023-12-14T08:18:05;95939.03;;;10.82;55.48
42771;BME280;28426;42.872;25.314;2023-12-14T08:20:36;95959.97;;;10.40;56.46
42771;BME280;28426;42.872;25.314;2023-12-14T08:23:06;95974.47;;;9.98;58.10
42771;BME280;28426;42.872;25.314;2023-12-14T08:25:37;95985.41;;;9.63;59.24
42771;BME280;28426;42.872;25.314;2023-12-14T08:28:10;96011.63;;;9.32;60.32
42771;BME280;28426;42.872;25.314;2023-12-14T08:30:41;96012.59;;;8.97;61.39
42771;BME280;28426;42.872;25.314;2023-12-14T08:33:13;96020.53;;;8.77;62.71
42771;BME280;28426;42.872;25.314;2023-12-14T08:35:43;96041.13;;;8.55;63.34
42771;BME280;28426;42.872;25.314;2023-12-14T08:38:14;96038.81;;;8.45;64.20
42771;BME280;28426;42.872;25.314;2023-12-14T08:40:45;96041.50;;;8.51;64.03
42771;BME280;28426;42.872;25.314;2023-12-14T08:43:19;96048.75;;;8.65;63.89
42771;BME280;28426;42.872;25.314;2023-12-14T08:45:49;96043.06;;;8.81;63.64
42771;BME280;28426;42.872;25.314;2023-12-14T08:48:20;96059.28;;;9.00;63.01
42771;BME280;28426;42.872;25.314;2023-12-14T08:50:53;96075.50;;;9.19;62.93
42771;BME280;28426;42.872;25.314;2023-12-14T08:53:24;96086.19;;;9.39;61.95
42771;BME280;28426;42.872;25.314;2023-12-14T08:55:55;96098.31;;;9.55;61.80
42771;BME280;28426;42.872;25.314;2023-12-14T08:58:29;96100.97;;;9.68;61.52
42771;BME280;28426;42.872;25.314;2023-12-14T09:01:00;96099.53;;;9.79;61.54
42771;BME280;28426;42.872;25.314;2023-12-14T09:03:31;96096.03;;;9.92;61.82
42771;BME280;28426;42.872;25.314;2023-12-14T09:06:02;96089.88;;;10.05;61.50
42771;BME280;28426;42.872;25.314;2023-12-14T09:08:33;96087.63;;;10.16;60.69
42771;BME280;28426;42.872;25.314;2023-12-14T09:11:04;96099.50;;;10.27;60.46
42771;BME280;28426;42.872;25.314;2023-12-14T09:13:37;96102.56;;;10.37;60.47
42771;BME280;28426;42.872;25.314;2023-12-14T09:16:09;96087.78;;;10.48;59.99
42771;BME280;28426;42.872;25.314;2023-12-14T09:18:39;96084.44;;;10.59;59.83
42771;BME280;28426;42.872;25.314;2023-12-14T09:21:10;96099.63;;;10.72;59.53
42771;BME280;28426;42.872;25.314;2023-12-14T09:23:42;96096.09;;;10.79;58.16
42771;BME280;28426;42.872;25.314;2023-12-14T09:26:16;96108.19;;;10.81;58.26
42771;BME280;28426;42.872;25.314;2023-12-14T09:28:49;96106.16;;;10.83;58.17
42771;BME280;28426;42.872;25.314;2023-12-14T09:31:20;96105.53;;;10.81;58.05
42771;BME280;28426;42.872;25.314;2023-12-14T09:33:50;96106.34;;;10.82;57.16
42771;BME280;28426;42.872;25.314;2023-12-14T09:36:21;96102.84;;;10.81;57.63
42771;BME280;28426;42.872;25.314;2023-12-14T09:38:52;96116.06;;;10.63;57.62
42771;BME280;28426;42.872;25.314;2023-12-14T09:41:23;96123.06;;;10.50;57.93
42771;BME280;28426;42.872;25.314;2023-12-14T09:43:56;96123.06;;;10.30;58.57
42771;BME280;28426;42.872;25.314;2023-12-14T09:46:29;96124.31;;;10.20;58.88
42771;BME280;28426;42.872;25.314;2023-12-14T09:49:02;96119.19;;;10.05;59.67
42771;BME280;28426;42.872;25.314;2023-12-14T09:51:35;96122.69;;;9.99;60.04
42771;BME280;28426;42.872;25.314;2023-12-14T09:54:08;96135.00;;;9.93;60.79
42771;BME280;28426;42.872;25.314;2023-12-14T09:56:46;96136.63;;;9.94;60.76
42771;BME280;28426;42.872;25.314;2023-12-14T09:59:20;96139.50;;;9.93;61.18
42771;BME280;28426;42.872;25.314;2023-12-14T10:01:53;96130.09;;;9.97;61.12
42771;BME280;28426;42.872;25.314;2023-12-14T10:04:39;96127.00;;;10.00;61.41
42771;BME280;28426;42.872;25.314;2023-12-14T10:07:09;96132.53;;;10.05;61.03
42771;BME280;28426;42.872;25.314;2023-12-14T10:09:43;96152.41;;;10.03;61.38
42771;BME280;28426;42.872;25.314;2023-12-14T10:12:14;96133.94;;;10.01;61.61
42771;BME280;28426;42.872;25.314;2023-12-14T10:14:48;96124.75;;;9.90;61.26
42771;BME280;28426;42.872;25.314;2023-12-14T10:17:33;96140.13;;;9.88;62.79
42771;BME280;28426;42.872;25.314;2023-12-14T10:20:05;96148.50;;;9.92;62.17
42771;BME280;28426;42.872;25.314;2023-12-14T10:22:37;96150.97;;;9.80;62.16
42771;BME280;28426;42.872;25.314;2023-12-14T10:25:09;96151.81;;;9.80;63.53
42771;BME280;28426;42.872;25.314;2023-12-14T10:27:40;96149.34;;;9.86;62.81
42771;BME280;28426;42.872;25.314;2023-12-14T10:30:14;96154.28;;;9.89;63.30
42771;BME280;28426;42.872;25.314;2023-12-14T10:32:47;96150.19;;;9.93;62.77
42771;BME280;28426;42.872;25.314;2023-12-14T10:35:19;96153.03;;;9.85;61.99
42771;BME280;28426;42.872;25.314;2023-12-14T10:37:51;96151.41;;;9.77;63.70
42771;BME280;28426;42.872;25.314;2023-12-14T10:40:23;96152.59;;;9.81;63.67
42771;BME280;28426;42.872;25.314;2023-12-14T10:42:55;96128.84;;;9.73;63.30
42771;BME280;28426;42.872;25.314;2023-12-14T10:45:33;96127.19;;;9.78;64.65
42771;BME280;28426;42.872;25.314;2023-12-14T10:48:05;96123.28;;;9.88;64.01
42771;BME280;28426;42.872;25.314;2023-12-14T10:50:37;96131.09;;;9.96;64.21
42771;BME280;28426;42.872;25.314;2023-12-14T10:53:09;96137.84;;;10.05;63.60
42771;BME280;28426;42.872;25.314;2023-12-14T10:55:42;96139.72;;;10.05;64.23
42771;BME280;28426;42.872;25.314;2023-12-14T10:58:13;96145.25;;;10.10;64.53
42771;BME280;28426;42.872;25.314;2023-12-14T11:00:59;96142.78;;;10.15;63.28
42771;BME280;28426;42.872;25.314;2023-12-14T11:03:33;96153.25;;;10.03;63.07
42771;BME280;28426;42.872;25.314;2023-12-14T11:06:19;96148.75;;;9.97;64.83
42771;BME280;28426;42.872;25.314;2023-12-14T11:08:53;96140.31;;;10.00;64.21
42771;BME280;28426;42.872;25.314;2023-12-14T11:11:28;96158.38;;;9.98;65.27
42771;BME280;28426;42.872;25.314;2023-12-14T11:13:59;96158.78;;;10.08;65.29
42771;BME280;28426;42.872;25.314;2023-12-14T11:16:34;96155.06;;;10.10;64.02
42771;BME280;28426;42.872;25.314;2023-12-14T11:19:26;96153.25;;;9.90;64.16
42771;BME280;28426;42.872;25.314;2023-12-14T11:22:22;96155.69;;;9.71;67.43
42771;BME280;28426;42.872;25.314;2023-12-14T11:24:54;96148.72;;;9.77;67.25
42771;BME280;28426;42.872;25.314;2023-12-14T11:27:26;96155.69;;;9.85;67.11
42771;BME280;28426;42.872;25.314;2023-12-14T11:29:58;96160.22;;;9.98;67.00
42771;BME280;28426;42.872;25.314;2023-12-14T11:32:33;96148.50;;;10.05;65.02
42771;BME280;28426;42.872;25.314;2023-12-14T11:35:03;96142.56;;;10.10;66.00
42771;BME280;28426;42.872;25.314;2023-12-14T11:37:36;96145.63;;;10.20;65.40
42771;BME280;28426;42.872;25.314;2023-12-14T11:40:08;96141.94;;;10.15;64.63
42771;BME280;28426;42.872;25.314;2023-12-14T11:42:41;96141.94;;;10.15;66.73
42771;BME280;28426;42.872;25.314;2023-12-14T11:45:13;96138.28;;;10.23;66.41
42771;BME280;28426;42.872;25.314;2023-12-14T11:47:47;96156.28;;;10.34;66.33
42771;BME280;28426;42.872;25.314;2023-12-14T11:50:18;96159.16;;;10.46;66.09
42771;BME280;28426;42.872;25.314;2023-12-14T11:52:49;96161.22;;;10.57;65.47
42771;BME280;28426;42.872;25.314;2023-12-14T11:55:21;96166.94;;;10.68;65.74
42771;BME280;28426;42.872;25.314;2023-12-14T11:57:52;96169.19;;;10.78;65.43
42771;BME280;28426;42.872;25.314;2023-12-14T12:00:23;96172.63;;;10.85;64.30
42771;BME280;28426;42.872;25.314;2023-12-14T12:03:10;96178.97;;;10.91;64.50
42771;BME280;28426;42.872;25.314;2023-12-14T12:05:42;96179.16;;;10.96;64.84
42771;BME280;28426;42.872;25.314;2023-12-14T12:08:15;96168.69;;;11.01;64.11
42771;BME280;28426;42.872;25.314;2023-12-14T12:10:47;96185.72;;;11.07;64.36
42771;BME280;28426;42.872;25.314;2023-12-14T12:13:20;96186.53;;;11.07;64.12
42771;BME280;28426;42.872;25.314;2023-12-14T12:15:50;96207.66;;;11.16;63.73
42771;BME280;28426;42.872;25.314;2023-12-14T12:18:24;96209.91;;;11.19;63.79
42771;BME280;28426;42.872;25.314;2023-12-14T12:20:55;96206.81;;;11.22;63.87
42771;BME280;28426;42.872;25.314;2023-12-14T12:23:31;96209.06;;;11.25;64.00
42771;BME280;28426;42.872;25.314;2023-12-14T12:26:02;96208.66;;;11.28;63.86
42771;BME280;28426;42.872;25.314;2023-12-14T12:28:33;96218.91;;;11.31;63.60
42771;BME280;28426;42.872;25.314;2023-12-14T12:31:04;96220.13;;;11.35;63.72
42771;BME280;28426;42.872;25.314;2023-12-14T12:33:38;96221.75;;;11.36;63.37
42771;BME280;28426;42.872;25.314;2023-12-14T12:36:10;96211.88;;;11.37;63.29
42771;BME280;28426;42.872;25.314;2023-12-14T12:38:40;96213.72;;;11.36;63.36
42771;BME280;28426;42.872;25.314;2023-12-14T12:41:11;96211.50;;;11.33;63.38
42771;BME280;28426;42.872;25.314;2023-12-14T12:43:42;96207.78;;;11.34;63.48
42771;BME280;28426;42.872;25.314;2023-12-14T12:46:13;96204.50;;;11.32;63.26
42771;BME280;28426;42.872;25.314;2023-12-14T12:48:46;96201.22;;;11.30;63.23
42771;BME280;28426;42.872;25.314;2023-12-14T12:51:19;96217.25;;;11.30;63.48
42771;BME280;28426;42.872;25.314;2023-12-14T12:53:49;96208.66;;;11.28;63.47
42771;BME280;28426;42.872;25.314;2023-12-14T12:56:33;96201.66;;;11.27;63.58
42771;BME280;28426;42.872;25.314;2023-12-14T12:59:04;96209.66;;;11.27;63.59
42771;BME280;28426;42.872;25.314;2023-12-14T13:01:36;96212.34;;;11.27;63.52
42771;BME280;28426;42.872;25.314;2023-12-14T13:04:20;96224.06;;;11.26;63.66
42771;BME280;28426;42.872;25.314;2023-12-14T13:06:53;96219.75;;;11.25;63.93
42771;BME280;28426;42.872;25.314;2023-12-14T13:09:23;96237.81;;;11.23;63.88
42771;BME280;28426;42.872;25.314;2023-12-14T13:11:55;96234.56;;;11.21;63.91
42771;BME280;28426;42.872;25.314;2023-12-14T13:14:25;96232.28;;;11.18;64.02
42771;BME280;28426;42.872;25.314;2023-12-14T13:16:56;96232.72;;;11.15;64.00
42771;BME280;28426;42.872;25.314;2023-12-14T13:19:30;96226.78;;;11.12;63.94